createdAt,value
2023-01-17T00:02:06.823Z,7.54
2023-01-17T00:04:52.605Z,7.45
2023-01-17T00:07:40.306Z,7.77
2023-01-17T00:10:10.485Z,7.70
2023-01-17T00:12:40.066Z,8.05
2023-01-17T00:15:09.356Z,7.92
2023-01-17T00:17:37.232Z,7.93
2023-01-17T00:20:23.220Z,7.77
2023-01-17T00:23:08.488Z,7.77
2023-01-17T00:25:57.138Z,7.67
2023-01-17T00:28:26.635Z,7.68
2023-01-17T00:30:53.790Z,7.53
2023-01-17T00:33:22.106Z,7.66
2023-01-17T00:35:49.430Z,7.41
2023-01-17T00:38:17.952Z,7.33
2023-01-17T00:40:46.002Z,7.40
2023-01-17T00:43:33.403Z,7.34
2023-01-17T00:46:20.333Z,7.35
2023-01-17T00:49:05.449Z,7.39
2023-01-17T00:51:52.172Z,7.50
2023-01-17T00:54:38.092Z,7.32
2023-01-17T00:57:24.438Z,7.10
2023-01-17T01:00:10.003Z,7.75
2023-01-17T01:02:57.432Z,7.70
2023-01-17T01:05:43.059Z,7.51
2023-01-17T01:08:36.075Z,7.60
2023-01-17T01:11:24.211Z,6.96
2023-01-17T01:14:09.397Z,7.17
2023-01-17T01:16:54.759Z,7.21
2023-01-17T01:19:41.356Z,7.63
2023-01-17T01:22:26.470Z,7.47
2023-01-17T01:25:11.880Z,7.54
2023-01-17T01:27:57.193Z,7.35
2023-01-17T01:30:42.420Z,7.17
2023-01-17T01:33:18.851Z,7.29
2023-01-17T01:35:49.544Z,7.49
2023-01-17T01:38:18.003Z,7.25
2023-01-17T01:40:47.731Z,7.23
2023-01-17T01:43:17.798Z,7.23
2023-01-17T01:45:50.714Z,7.44
2023-01-17T01:48:31.258Z,7.30
2023-01-17T01:51:02.355Z,7.32
2023-01-17T01:53:32.650Z,7.27
2023-01-17T01:56:00.650Z,7.40
2023-01-17T01:58:33.129Z,7.54
2023-01-17T02:01:01.098Z,7.20
2023-01-17T02:03:32.884Z,6.88
2023-01-17T02:06:13.199Z,7.53
2023-01-17T02:08:42.325Z,7.13
2023-01-17T02:11:10.608Z,7.63
2023-01-17T02:13:38.482Z,7.23
2023-01-17T02:16:15.196Z,7.64
2023-01-17T02:18:57.298Z,7.55
2023-01-17T02:21:31.251Z,7.22
2023-01-17T02:24:31.100Z,7.54
2023-01-17T02:27:04.156Z,7.36
2023-01-17T02:30:08.711Z,7.44
2023-01-17T02:32:48.034Z,7.43
2023-01-17T02:35:28.136Z,7.67
2023-01-17T02:38:04.296Z,7.57
2023-01-17T02:40:39.429Z,7.59
2023-01-17T02:43:11.752Z,7.63
2023-01-17T02:45:39.754Z,7.41
2023-01-17T02:48:11.973Z,7.59
2023-01-17T02:50:58.579Z,7.92
2023-01-17T02:53:40.413Z,7.77
2023-01-17T02:56:20.793Z,7.72
2023-01-17T02:59:06.695Z,7.88
2023-01-17T03:01:43.962Z,8.13
2023-01-17T03:04:18.075Z,8.15
2023-01-17T03:06:53.125Z,8.20
2023-01-17T03:09:22.288Z,8.30
2023-01-17T03:11:50.427Z,8.21
2023-01-17T03:14:18.477Z,7.98
2023-01-17T03:16:47.287Z,8.03
2023-01-17T03:19:16.687Z,7.65
2023-01-17T03:21:44.665Z,7.96
2023-01-17T03:24:12.697Z,8.20
2023-01-17T03:26:40.741Z,8.24
2023-01-17T03:29:08.745Z,8.35
2023-01-17T03:31:36.837Z,8.28
2023-01-17T03:34:04.932Z,8.44
2023-01-17T03:36:34.373Z,8.24
2023-01-17T03:39:03.023Z,7.88
2023-01-17T03:41:31.105Z,8.23
2023-01-17T03:43:59.072Z,8.18
2023-01-17T03:46:28.619Z,8.19
2023-01-17T03:48:56.733Z,8.14
2023-01-17T03:51:24.885Z,8.32
2023-01-17T03:53:54.600Z,8.16
2023-01-17T03:56:22.604Z,8.41
2023-01-17T03:58:51.544Z,8.31
2023-01-17T04:01:20.036Z,8.05
2023-01-17T04:03:48.119Z,8.43
2023-01-17T04:06:16.269Z,8.61
2023-01-17T04:08:44.399Z,8.74
2023-01-17T04:11:13.704Z,8.44
2023-01-17T04:13:41.650Z,8.33
2023-01-17T04:16:14.311Z,8.43
2023-01-17T04:18:42.368Z,8.38
2023-01-17T04:21:10.327Z,8.32
2023-01-17T04:23:38.439Z,8.34
2023-01-17T04:26:06.578Z,8.37
2023-01-17T04:28:35.834Z,8.57
2023-01-17T04:31:03.845Z,8.38
2023-01-17T04:33:31.961Z,8.43
2023-01-17T04:36:00.123Z,8.47
2023-01-17T04:38:28.156Z,8.61
2023-01-17T04:40:56.164Z,8.50
2023-01-17T04:43:24.163Z,8.66
2023-01-17T04:45:57.480Z,8.68
2023-01-17T04:48:26.168Z,8.66
2023-01-17T04:51:00.923Z,8.57
2023-01-17T04:53:29.023Z,8.41
2023-01-17T04:55:57.111Z,8.37
2023-01-17T04:58:25.218Z,8.40
2023-01-17T05:00:53.209Z,8.43
2023-01-17T05:03:24.081Z,8.54
2023-01-17T05:05:52.185Z,8.35
2023-01-17T05:08:20.068Z,8.44
2023-01-17T05:10:48.332Z,8.48
2023-01-17T05:13:16.481Z,8.49
2023-01-17T05:15:44.806Z,8.49
2023-01-17T05:18:13.822Z,8.51
2023-01-17T05:20:43.217Z,8.42
2023-01-17T05:23:12.027Z,8.27
2023-01-17T05:25:44.529Z,8.50
2023-01-17T05:28:13.244Z,8.35
2023-01-17T05:30:41.613Z,8.07
2023-01-17T05:33:10.279Z,8.39
2023-01-17T05:35:38.573Z,8.13
2023-01-17T05:38:07.811Z,8.24
2023-01-17T05:40:35.731Z,8.41
2023-01-17T05:43:04.602Z,8.32
2023-01-17T05:45:34.159Z,8.19
2023-01-17T05:48:02.831Z,8.26
2023-01-17T05:50:33.400Z,8.51
2023-01-17T05:53:03.394Z,8.45
2023-01-17T05:55:33.748Z,8.37
2023-01-17T05:58:02.331Z,8.49
2023-01-17T06:00:30.792Z,8.36
2023-01-17T06:03:00.902Z,8.59
2023-01-17T06:05:30.123Z,8.72
2023-01-17T06:07:58.338Z,8.79
2023-01-17T06:10:26.820Z,8.56
2023-01-17T06:13:04.761Z,8.62
2023-01-17T06:15:32.961Z,8.81
2023-01-17T06:18:05.873Z,8.45
2023-01-17T06:20:34.567Z,8.22
2023-01-17T06:23:04.378Z,8.36
2023-01-17T06:25:36.687Z,8.42
2023-01-17T06:28:06.771Z,8.55
2023-01-17T06:30:35.007Z,8.20
2023-01-17T06:33:03.030Z,8.47
2023-01-17T06:35:31.039Z,8.66
2023-01-17T06:38:00.412Z,8.39
2023-01-17T06:40:29.232Z,8.29
2023-01-17T06:43:01.588Z,8.35
2023-01-17T06:45:31.565Z,8.30
2023-01-17T06:48:00.665Z,8.61
2023-01-17T06:50:28.592Z,8.24
2023-01-17T06:52:57.575Z,8.54
2023-01-17T06:55:28.741Z,8.52
2023-01-17T06:57:56.969Z,8.47
2023-01-17T07:00:25.258Z,8.52
2023-01-17T07:02:54.775Z,8.38
2023-01-17T07:05:23.230Z,8.24
2023-01-17T07:07:51.125Z,8.44
2023-01-17T07:10:19.314Z,8.33
2023-01-17T07:12:47.535Z,8.18
2023-01-17T07:15:15.549Z,8.37
2023-01-17T07:17:43.451Z,8.21
2023-01-17T07:20:13.507Z,8.47
2023-01-17T07:22:45.300Z,8.43
2023-01-17T07:25:13.263Z,8.40
2023-01-17T07:27:41.126Z,8.40
2023-01-17T07:30:10.659Z,8.12
2023-01-17T07:32:38.817Z,8.23
2023-01-17T07:35:07.901Z,8.08
2023-01-17T07:37:37.116Z,8.48
2023-01-17T07:40:05.757Z,8.24
2023-01-17T07:42:33.658Z,8.02
2023-01-17T07:45:02.167Z,8.20
2023-01-17T07:47:30.562Z,8.10
2023-01-17T07:49:58.468Z,8.19
2023-01-17T07:52:26.351Z,8.14
2023-01-17T07:54:55.683Z,8.71
2023-01-17T07:57:23.684Z,8.20
2023-01-17T07:59:52.313Z,8.45
2023-01-17T08:02:22.242Z,8.41
2023-01-17T08:04:50.741Z,8.49
2023-01-17T08:07:18.706Z,8.75
2023-01-17T08:09:49.679Z,8.13
2023-01-17T08:12:19.113Z,8.50
2023-01-17T08:14:47.045Z,8.53
2023-01-17T08:17:17.067Z,8.32
2023-01-17T08:19:45.251Z,8.34
2023-01-17T08:22:13.241Z,8.64
2023-01-17T08:24:41.909Z,8.62
2023-01-17T08:27:10.029Z,8.56
2023-01-17T08:29:42.143Z,8.81
2023-01-17T08:32:10.070Z,8.35
2023-01-17T08:34:38.038Z,8.54
2023-01-17T08:37:05.932Z,8.39
2023-01-17T08:39:33.928Z,8.50
2023-01-17T08:42:01.791Z,8.81
2023-01-17T08:44:29.740Z,8.27
2023-01-17T08:46:59.199Z,8.43
2023-01-17T08:49:29.548Z,8.38
2023-01-17T08:51:57.687Z,8.53
2023-01-17T08:54:25.604Z,8.75
2023-01-17T08:56:55.579Z,8.57
2023-01-17T08:59:23.811Z,8.53
2023-01-17T09:01:52.537Z,8.16
2023-01-17T09:04:22.227Z,8.32
2023-01-17T09:06:50.149Z,8.53
2023-01-17T09:09:18.705Z,8.41
2023-01-17T09:11:46.573Z,8.34
2023-01-17T09:14:15.547Z,8.98
2023-01-17T09:16:43.563Z,8.74
2023-01-17T09:19:11.508Z,8.65
2023-01-17T09:21:40.773Z,8.44
2023-01-17T09:24:08.803Z,8.48
2023-01-17T09:26:36.828Z,8.55
2023-01-17T09:29:05.057Z,8.45
2023-01-17T09:31:32.975Z,8.65
2023-01-17T09:34:00.876Z,8.81
2023-01-17T09:36:31.900Z,9.06
2023-01-17T09:39:02.071Z,8.65
2023-01-17T09:41:33.346Z,8.31
2023-01-17T09:44:07.339Z,8.60
2023-01-17T09:46:40.625Z,8.35
2023-01-17T09:49:09.585Z,8.67
2023-01-17T09:51:37.988Z,8.72
2023-01-17T09:54:07.290Z,8.83
2023-01-17T09:56:42.327Z,9.00
2023-01-17T09:59:33.251Z,8.65
2023-01-17T10:02:19.658Z,9.32
2023-01-17T10:05:07.684Z,8.68
2023-01-17T10:07:46.318Z,8.80
2023-01-17T10:10:30.444Z,8.98
2023-01-17T10:13:05.082Z,9.10
2023-01-17T10:15:54.663Z,8.76
2023-01-17T10:18:44.133Z,9.24
2023-01-17T10:21:22.229Z,9.47
2023-01-17T10:24:31.786Z,9.27
2023-01-17T10:27:03.988Z,8.95
2023-01-17T10:29:36.525Z,8.76
2023-01-17T10:32:04.859Z,9.00
2023-01-17T10:34:38.410Z,9.11
2023-01-17T10:37:20.988Z,8.99
2023-01-17T10:39:51.087Z,9.00
2023-01-17T10:42:24.840Z,9.11
2023-01-17T10:45:00.951Z,8.96
2023-01-17T10:47:33.669Z,8.83
2023-01-17T10:50:05.155Z,8.87
2023-01-17T10:52:43.349Z,8.90
2023-01-17T10:55:28.024Z,8.88
2023-01-17T10:57:58.924Z,8.75
2023-01-17T11:00:35.491Z,8.79
2023-01-17T11:03:03.823Z,8.47
2023-01-17T11:05:33.764Z,8.77
2023-01-17T11:08:03.937Z,8.94
2023-01-17T11:10:41.525Z,8.66
2023-01-17T11:13:23.805Z,8.14
2023-01-17T11:15:57.598Z,8.48
2023-01-17T11:18:29.188Z,8.61
2023-01-17T11:21:12.234Z,8.21
2023-01-17T11:23:42.859Z,8.21
2023-01-17T11:26:13.823Z,8.23
2023-01-17T11:28:43.368Z,8.17
2023-01-17T11:31:26.824Z,7.93
2023-01-17T11:34:15.157Z,8.06
2023-01-17T11:36:43.352Z,7.96
2023-01-17T11:39:27.435Z,7.30
2023-01-17T11:41:55.677Z,7.42
2023-01-17T11:44:27.381Z,7.70
2023-01-17T11:47:10.557Z,7.83
2023-01-17T11:49:39.376Z,7.78
2023-01-17T11:52:10.441Z,8.17
2023-01-17T11:54:42.376Z,8.02
2023-01-17T11:57:22.001Z,8.25
2023-01-17T11:59:53.412Z,8.29
2023-01-17T12:02:42.216Z,8.53
2023-01-17T12:05:30.362Z,7.60
2023-01-17T12:08:07.882Z,8.12
2023-01-17T12:10:46.257Z,8.11
2023-01-17T12:13:42.586Z,8.26
2023-01-17T12:16:33.181Z,8.50
2023-01-17T12:19:34.737Z,8.81
2023-01-17T12:22:17.543Z,8.75
2023-01-17T12:25:14.849Z,8.60
2023-01-17T12:27:54.337Z,8.97
2023-01-17T12:30:39.158Z,8.80
2023-01-17T12:33:21.111Z,8.79
2023-01-17T12:35:53.084Z,8.80
2023-01-17T12:38:32.559Z,8.61
2023-01-17T12:41:06.352Z,8.62
2023-01-17T12:43:36.944Z,8.84
2023-01-17T12:46:12.513Z,8.88
2023-01-17T12:48:42.173Z,8.81
2023-01-17T12:51:16.552Z,8.39
2023-01-17T12:53:50.983Z,8.34
2023-01-17T12:56:25.887Z,8.64
2023-01-17T12:58:56.960Z,8.28
2023-01-17T13:01:30.475Z,8.54
2023-01-17T13:04:17.726Z,8.32
2023-01-17T13:06:56.006Z,8.74
2023-01-17T13:09:24.979Z,8.60
2023-01-17T13:11:58.211Z,8.78
2023-01-17T13:14:25.904Z,8.92
2023-01-17T13:16:58.854Z,8.85
2023-01-17T13:19:39.070Z,8.92
2023-01-17T13:22:17.309Z,8.62
2023-01-17T13:24:55.744Z,8.65
2023-01-17T13:27:38.517Z,9.02
2023-01-17T13:30:30.758Z,9.07
2023-01-17T13:33:19.730Z,8.50
2023-01-17T13:35:58.188Z,8.72
2023-01-17T13:38:43.656Z,8.37
2023-01-17T13:41:28.161Z,8.17
2023-01-17T13:44:13.752Z,8.19
2023-01-17T13:47:00.677Z,8.68
2023-01-17T13:49:47.585Z,8.52
2023-01-17T13:52:35.942Z,8.32
2023-01-17T13:55:07.224Z,8.40
2023-01-17T13:57:46.702Z,8.42
2023-01-17T14:00:59.150Z,8.14
2023-01-17T14:04:03.549Z,8.22
2023-01-17T14:06:37.370Z,8.43
2023-01-17T14:09:17.632Z,8.38
2023-01-17T14:11:55.063Z,8.47
2023-01-17T14:14:49.771Z,8.74
2023-01-17T14:17:42.566Z,8.78
2023-01-17T14:20:51.079Z,8.37
2023-01-17T14:23:26.287Z,8.67
2023-01-17T14:25:59.256Z,8.47
2023-01-17T14:28:32.692Z,8.23
2023-01-17T14:31:03.340Z,8.63
2023-01-17T14:33:35.650Z,8.21
2023-01-17T14:36:06.268Z,8.25
2023-01-17T14:38:41.955Z,8.23
2023-01-17T14:41:16.478Z,7.91
2023-01-17T14:43:45.371Z,8.20
2023-01-17T14:46:19.926Z,8.31
2023-01-17T14:48:48.621Z,8.14
2023-01-17T14:51:21.292Z,8.01
2023-01-17T14:53:56.719Z,8.58
2023-01-17T14:56:27.935Z,8.61
2023-01-17T14:59:07.203Z,8.71
2023-01-17T15:01:36.571Z,8.44
2023-01-17T15:04:04.968Z,8.59
2023-01-17T15:06:39.355Z,8.44
2023-01-17T15:09:11.872Z,8.05
2023-01-17T15:11:42.193Z,8.29
2023-01-17T15:14:19.817Z,8.26
2023-01-17T15:16:47.966Z,8.02
2023-01-17T15:19:16.477Z,8.13
2023-01-17T15:21:46.781Z,7.95
2023-01-17T15:24:19.982Z,8.09
2023-01-17T15:26:50.123Z,8.00
2023-01-17T15:29:25.231Z,7.85
2023-01-17T15:31:55.112Z,8.00
2023-01-17T15:34:28.610Z,7.97
2023-01-17T15:36:58.569Z,8.06
2023-01-17T15:39:30.192Z,8.03
2023-01-17T15:42:01.679Z,7.98
2023-01-17T15:44:50.292Z,8.00
2023-01-17T15:47:28.816Z,7.89
2023-01-17T15:49:56.732Z,7.83
2023-01-17T15:52:24.644Z,7.68
2023-01-17T15:54:54.571Z,7.63
2023-01-17T15:57:28.306Z,7.68
2023-01-17T15:59:59.529Z,7.72
2023-01-17T16:02:33.132Z,7.59
2023-01-17T16:05:02.425Z,7.58
2023-01-17T16:07:34.068Z,7.56
2023-01-17T16:10:14.800Z,7.57
2023-01-17T16:12:44.193Z,7.56
2023-01-17T16:15:13.514Z,7.51
2023-01-17T16:17:44.626Z,7.49
2023-01-17T16:20:19.703Z,7.51
2023-01-17T16:22:48.359Z,7.52
2023-01-17T16:25:18.819Z,7.47
2023-01-17T16:27:48.556Z,7.38
2023-01-17T16:30:19.258Z,7.46
2023-01-17T16:32:48.707Z,7.48
2023-01-17T16:35:20.765Z,7.43
2023-01-17T16:37:50.407Z,7.28
2023-01-17T16:40:19.071Z,7.31
2023-01-17T16:42:48.636Z,7.29
2023-01-17T16:45:17.591Z,7.26
2023-01-17T16:47:47.363Z,7.25
2023-01-17T16:50:17.941Z,7.18
2023-01-17T16:52:45.841Z,7.21
2023-01-17T16:55:16.004Z,7.15
2023-01-17T16:57:43.985Z,7.04
2023-01-17T17:00:14.622Z,6.97
2023-01-17T17:02:42.588Z,7.15
2023-01-17T17:05:11.537Z,6.97
2023-01-17T17:07:42.859Z,6.98
2023-01-17T17:10:11.714Z,6.86
2023-01-17T17:12:39.540Z,7.02
2023-01-17T17:15:08.458Z,6.99
2023-01-17T17:17:38.040Z,6.99
2023-01-17T17:20:07.518Z,6.89
2023-01-17T17:22:35.401Z,6.87
2023-01-17T17:25:05.251Z,6.78
2023-01-17T17:27:33.321Z,6.89
2023-01-17T17:30:01.270Z,6.72
2023-01-17T17:32:29.301Z,6.93
2023-01-17T17:34:58.541Z,6.78
2023-01-17T17:37:28.969Z,6.87
2023-01-17T17:39:57.037Z,6.82
2023-01-17T17:42:25.630Z,6.94
2023-01-17T17:44:53.643Z,6.87
2023-01-17T17:47:21.526Z,6.56
2023-01-17T17:49:49.440Z,6.69
2023-01-17T17:52:19.064Z,6.79
2023-01-17T17:54:46.903Z,6.82
2023-01-17T17:57:15.138Z,6.80
2023-01-17T17:59:43.091Z,6.65
2023-01-17T18:02:12.128Z,6.74
2023-01-17T18:04:40.131Z,6.75
2023-01-17T18:07:08.264Z,6.66
2023-01-17T18:09:39.313Z,6.69
2023-01-17T18:12:07.885Z,6.78
2023-01-17T18:14:36.283Z,6.78
2023-01-17T18:17:04.633Z,6.81
2023-01-17T18:19:32.634Z,6.72
2023-01-17T18:22:01.070Z,6.76
2023-01-17T18:24:29.456Z,6.75
2023-01-17T18:26:59.140Z,6.70
2023-01-17T18:29:29.197Z,6.55
2023-01-17T18:31:57.207Z,6.53
2023-01-17T18:34:29.235Z,6.64
2023-01-17T18:36:58.941Z,6.55
2023-01-17T18:39:28.161Z,6.59
2023-01-17T18:41:57.163Z,6.49
2023-01-17T18:44:27.745Z,6.44
2023-01-17T18:46:58.114Z,6.46
2023-01-17T18:49:26.132Z,6.46
2023-01-17T18:51:54.017Z,6.34
2023-01-17T18:54:21.938Z,6.38
2023-01-17T18:56:51.048Z,6.40
2023-01-17T18:59:19.664Z,6.29
2023-01-17T19:01:48.993Z,6.30
2023-01-17T19:04:17.889Z,6.33
2023-01-17T19:06:47.936Z,6.25
2023-01-17T19:09:17.075Z,6.20
2023-01-17T19:11:46.234Z,6.29
2023-01-17T19:14:14.544Z,6.16
2023-01-17T19:16:43.118Z,6.27
2023-01-17T19:19:14.414Z,6.24
2023-01-17T19:21:42.600Z,6.20
2023-01-17T19:24:13.038Z,6.08
2023-01-17T19:26:41.310Z,6.06
2023-01-17T19:29:09.122Z,6.01
2023-01-17T19:31:42.311Z,6.07
2023-01-17T19:34:13.767Z,6.02
2023-01-17T19:36:42.120Z,6.07
2023-01-17T19:39:10.491Z,6.03
2023-01-17T19:41:42.097Z,6.01
2023-01-17T19:44:11.979Z,5.97
2023-01-17T19:46:40.007Z,5.87
2023-01-17T19:49:09.794Z,5.85
2023-01-17T19:51:39.662Z,5.81
2023-01-17T19:54:08.400Z,5.95
2023-01-17T19:56:36.753Z,5.88
2023-01-17T19:59:04.844Z,5.89
2023-01-17T20:01:35.225Z,5.83
2023-01-17T20:04:04.658Z,5.67
2023-01-17T20:06:34.534Z,5.74
2023-01-17T20:09:04.588Z,5.61
2023-01-17T20:11:33.105Z,5.75
2023-01-17T20:14:01.181Z,5.86
2023-01-17T20:16:31.616Z,5.86
2023-01-17T20:19:00.202Z,5.82
2023-01-17T20:21:30.548Z,5.89
2023-01-17T20:24:00.492Z,5.85
2023-01-17T20:26:34.955Z,5.79
2023-01-17T20:29:06.771Z,5.76
2023-01-17T20:31:38.107Z,5.67
2023-01-17T20:34:08.082Z,5.66
2023-01-17T20:36:37.009Z,5.78
2023-01-17T20:39:05.865Z,5.86
2023-01-17T20:41:37.297Z,5.89
2023-01-17T20:44:06.851Z,5.71
2023-01-17T20:46:40.405Z,5.65
2023-01-17T20:49:13.320Z,5.58
2023-01-17T20:51:42.061Z,5.42
2023-01-17T20:54:14.229Z,5.46
2023-01-17T20:56:46.708Z,5.50
2023-01-17T20:59:17.081Z,5.45
2023-01-17T21:01:45.582Z,5.40
2023-01-17T21:04:14.730Z,5.31
2023-01-17T21:06:43.743Z,5.17
2023-01-17T21:09:14.135Z,5.24
2023-01-17T21:11:43.517Z,5.25
2023-01-17T21:14:11.422Z,5.08
2023-01-17T21:16:39.495Z,5.11
2023-01-17T21:19:09.189Z,5.10
2023-01-17T21:21:37.119Z,5.02
2023-01-17T21:24:05.899Z,5.06
2023-01-17T21:26:33.738Z,4.92
2023-01-17T21:29:03.641Z,4.95
2023-01-17T21:31:34.734Z,4.90
2023-01-17T21:34:04.784Z,4.95
2023-01-17T21:36:34.724Z,4.90
2023-01-17T21:39:05.383Z,4.93
2023-01-17T21:41:35.081Z,4.95
2023-01-17T21:44:07.877Z,4.84
2023-01-17T21:46:38.326Z,4.86
2023-01-17T21:49:06.299Z,4.76
2023-01-17T21:51:52.990Z,4.84
2023-01-17T21:54:40.889Z,4.82
2023-01-17T21:57:26.308Z,4.81
2023-01-17T21:59:55.584Z,4.97
2023-01-17T22:02:23.923Z,5.03
2023-01-17T22:04:51.880Z,4.91
2023-01-17T22:07:19.789Z,4.81
2023-01-17T22:09:47.663Z,4.83
2023-01-17T22:12:15.525Z,4.94
2023-01-17T22:14:43.380Z,4.82
2023-01-17T22:17:12.576Z,4.72
2023-01-17T22:19:40.537Z,4.74
2023-01-17T22:22:08.441Z,4.74
2023-01-17T22:24:36.285Z,4.63
2023-01-17T22:27:04.236Z,4.71
2023-01-17T22:29:33.957Z,4.82
2023-01-17T22:32:01.920Z,4.67
2023-01-17T22:34:31.164Z,4.64
2023-01-17T22:36:59.086Z,4.64
2023-01-17T22:39:26.962Z,4.57
2023-01-17T22:41:54.848Z,4.60
2023-01-17T22:44:22.751Z,4.56
2023-01-17T22:46:50.628Z,4.59
2023-01-17T22:49:23.284Z,4.49
2023-01-17T22:51:52.641Z,4.53
2023-01-17T22:54:20.508Z,4.60
2023-01-17T22:56:48.603Z,4.49
2023-01-17T22:59:16.651Z,4.54
2023-01-17T23:01:44.575Z,4.53
2023-01-17T23:04:16.020Z,4.64
2023-01-17T23:06:44.483Z,4.61
2023-01-17T23:09:15.541Z,4.45
2023-01-17T23:11:46.727Z,4.46
2023-01-17T23:14:17.628Z,4.44
2023-01-17T23:17:05.137Z,4.44
2023-01-17T23:19:35.796Z,4.45
2023-01-17T23:22:19.172Z,4.34
2023-01-17T23:24:51.120Z,4.34
2023-01-17T23:27:39.095Z,4.31
2023-01-17T23:30:10.775Z,4.43
2023-01-17T23:32:38.964Z,4.39
2023-01-17T23:35:07.793Z,4.43
2023-01-17T23:37:52.884Z,4.40
2023-01-17T23:40:22.354Z,4.28
2023-01-17T23:43:07.504Z,4.13
2023-01-17T23:45:36.845Z,4.29
2023-01-17T23:48:09.282Z,4.40
2023-01-17T23:50:37.866Z,4.38
2023-01-17T23:53:07.960Z,4.32
2023-01-17T23:55:39.316Z,4.32
2023-01-17T23:58:08.550Z,4.33
